Time;durP1;ratioP1;P1;durP2;ratioP2;P2;SDS_P1;SDS_P2;PMS_P1;PMS_P2;Temp;Humidity;BMP_temperature;BMP_pressure;BME280_temperature;BME280_humidity;BME280_pressure;Samples;Min_cycle;Max_cycle;Signal;HPM_P1;HPM_P2
2022/09/01 00:00:27;;;;;;;7.85;0.60;;;17.80;69.30;;;;;;5072345;28;20053;-84
2022/09/01 00:02:54;;;;;;;1.50;0.50;;;17.80;69.50;;;;;;5073410;28;20036;-82
2022/09/01 00:05:20;;;;;;;2.88;0.63;;;17.80;69.90;;;;;;5074083;28;20021;-83
2022/09/01 00:07:47;;;;;;;1.48;0.50;;;17.70;70.10;;;;;;5056458;28;20027;-83
2022/09/01 00:10:13;;;;;;;1.30;0.40;;;17.70;70.00;;;;;;5055837;28;20032;-82
2022/09/01 00:12:39;;;;;;;4.15;0.60;;;17.70;70.10;;;;;;5055803;28;20032;-84
2022/09/01 00:15:08;;;;;;;2.53;0.40;;;17.70;70.20;;;;;;5053252;28;20155;-83
2022/09/01 00:17:34;;;;;;;3.63;0.60;;;17.60;70.30;;;;;;5066270;28;20060;-83
2022/09/01 00:19:59;;;;;;;3.30;0.57;;;17.60;70.60;;;;;;5071784;28;20059;-83
2022/09/01 00:22:25;;;;;;;1.42;0.60;;;17.60;70.90;;;;;;5072667;28;20037;-85
2022/09/01 00:24:51;;;;;;;1.42;0.75;;;17.50;70.60;;;;;;5076140;28;20033;-84
2022/09/01 00:27:17;;;;;;;1.58;0.30;;;17.50;70.80;;;;;;5059402;28;20036;-84
2022/09/01 00:29:42;;;;;;;1.10;0.50;;;17.50;70.90;;;;;;5075809;28;20024;-84
2022/09/01 00:32:08;;;;;;;1.98;0.63;;;17.40;71.00;;;;;;5059076;28;20119;-83
2022/09/01 00:34:34;;;;;;;2.67;0.65;;;17.40;71.20;;;;;;5042346;28;20036;-84
2022/09/01 00:36:59;;;;;;;1.77;0.50;;;17.40;71.30;;;;;;5075782;28;20024;-84
2022/09/01 00:39:25;;;;;;;2.70;0.52;;;17.40;71.20;;;;;;5042517;28;20036;-84
2022/09/01 00:41:51;;;;;;;1.55;0.45;;;17.40;71.30;;;;;;5075676;28;20107;-85
2022/09/01 00:44:22;;;;;;;1.58;0.43;;;17.30;71.20;;;;;;5059109;28;20385;-84
2022/09/01 00:46:50;;;;;;;1.80;0.60;;;17.30;71.60;;;;;;5075498;28;20020;-85
2022/09/01 00:49:22;;;;;;;1.77;0.52;;;17.30;71.40;;;;;;5075366;28;20074;-85
2022/09/01 00:51:57;;;;;;;2.05;0.47;;;17.30;71.50;;;;;;5075075;28;20059;-84
2022/09/01 00:54:27;;;;;;;1.25;0.40;;;17.20;71.90;;;;;;5075214;28;20107;-84
2022/09/01 00:56:53;;;;;;;1.50;0.50;;;17.20;71.70;;;;;;5074882;28;20024;-84
2022/09/01 00:59:21;;;;;;;2.50;0.50;;;17.20;71.70;;;;;;5058602;28;20039;-85
2022/09/01 01:01:47;;;;;;;2.55;0.70;;;17.20;71.70;;;;;;5058472;28;20519;-85
2022/09/01 01:04:16;;;;;;;3.13;0.60;;;17.20;71.70;;;;;;5041651;28;20029;-86
2022/09/01 01:06:49;;;;;;;1.70;0.40;;;17.10;71.90;;;;;;5076275;28;20074;-84
2022/09/01 01:09:17;;;;;;;6.28;0.50;;;17.10;71.80;;;;;;5076142;28;20025;-85
2022/09/01 01:11:46;;;;;;;1.42;0.50;;;17.10;72.00;;;;;;5074945;28;20021;-84
2022/09/01 01:14:15;;;;;;;2.50;0.50;;;17.10;72.10;;;;;;5058965;28;20381;-84
2022/09/01 01:16:44;;;;;;;2.83;0.50;;;17.10;72.30;;;;;;5058677;28;20476;-86
2022/09/01 01:23:00;;;;;;;2.58;0.75;;;17.00;72.30;;;;;;5074991;28;20094;-86
2022/09/01 01:24:51;;;;;;;6.43;0.63;;;17.00;72.10;;;;;;5076253;28;20036;-86
2022/09/01 01:27:18;;;;;;;4.45;0.50;;;17.00;72.10;;;;;;5075976;28;20021;-84
2022/09/01 01:29:46;;;;;;;2.03;0.55;;;17.00;72.30;;;;;;5074904;28;20028;-85
2022/09/01 01:32:12;;;;;;;1.67;0.40;;;17.00;72.20;;;;;;5074485;28;20494;-84
2022/09/01 01:34:44;;;;;;;2.55;0.50;;;17.00;72.20;;;;;;5073736;28;20072;-84
2022/09/01 01:37:12;;;;;;;2.50;0.60;;;17.00;72.40;;;;;;5074975;28;20464;-85
2022/09/01 01:39:41;;;;;;;2.10;0.60;;;17.00;72.20;;;;;;5074178;28;20032;-85
2022/09/01 01:42:08;;;;;;;4.18;0.60;;;17.00;72.10;;;;;;5075264;28;20036;-83
2022/09/01 01:44:36;;;;;;;1.38;0.55;;;16.90;72.10;;;;;;5074606;28;20396;-83
2022/09/01 01:47:07;;;;;;;3.58;0.52;;;17.00;72.10;;;;;;5074323;28;20031;-84
2022/09/01 01:49:35;;;;;;;3.05;0.70;;;16.90;72.20;;;;;;5074752;28;20036;-85
2022/09/01 01:52:01;;;;;;;1.85;0.40;;;16.90;72.20;;;;;;5074517;28;20028;-85
2022/09/01 01:54:31;;;;;;;1.52;0.57;;;16.90;72.00;;;;;;5075684;28;20025;-85
2022/09/01 01:56:57;;;;;;;3.28;0.38;;;16.90;72.00;;;;;;5073991;28;20028;-84
2022/09/01 01:59:25;;;;;;;1.45;0.40;;;16.80;71.80;;;;;;5074387;28;20035;-84
2022/09/01 02:01:51;;;;;;;3.00;0.50;;;16.90;71.60;;;;;;5073665;28;20561;-84
2022/09/01 02:04:19;;;;;;;1.10;0.50;;;16.90;71.40;;;;;;5073918;28;20051;-83
2022/09/01 02:06:46;;;;;;;1.73;0.43;;;16.90;71.30;;;;;;5073728;28;20121;-83
2022/09/01 02:09:14;;;;;;;1.30;0.40;;;16.90;71.20;;;;;;5074971;28;20107;-84
2022/09/01 02:11:40;;;;;;;1.40;0.40;;;16.90;71.10;;;;;;5075227;28;20032;-83
2022/09/01 02:14:07;;;;;;;0.98;0.32;;;16.90;71.00;;;;;;5040822;28;20035;-83
2022/09/01 02:16:35;;;;;;;1.52;0.52;;;16.90;70.90;;;;;;5075467;28;20457;-82
2022/09/01 02:19:02;;;;;;;4.35;0.40;;;16.90;70.70;;;;;;5073563;28;20017;-84
2022/09/01 02:21:28;;;;;;;3.95;0.40;;;17.00;70.70;;;;;;5074615;28;20024;-82
2022/09/01 02:24:01;;;;;;;2.58;0.40;;;17.00;70.50;;;;;;5057135;28;20070;-83
2022/09/01 02:26:38;;;;;;;1.52;0.40;;;17.00;70.20;;;;;;5074469;28;20025;-84
2022/09/01 02:29:08;;;;;;;2.72;0.40;;;17.00;70.10;;;;;;5073259;28;20035;-83
2022/09/01 02:31:38;;;;;;;3.35;0.45;;;17.00;69.90;;;;;;5073573;28;20520;-84
2022/09/01 02:34:09;;;;;;;1.83;0.43;;;17.10;69.70;;;;;;5073408;28;20024;-84
2022/09/01 02:36:46;;;;;;;1.27;0.40;;;17.00;69.50;;;;;;5073449;28;20388;-85
2022/09/01 02:39:14;;;;;;;4.25;0.40;;;17.10;69.40;;;;;;5074639;28;20027;-83
2022/09/01 02:41:40;;;;;;;0.93;0.40;;;17.10;69.30;;;;;;5073291;28;20036;-84
2022/09/01 02:44:10;;;;;;;1.73;0.75;;;17.10;69.20;;;;;;5056257;28;20035;-85
2022/09/01 02:46:40;;;;;;;1.20;0.30;;;17.10;69.10;;;;;;5072961;28;20048;-84
2022/09/01 02:49:28;;;;;;;1.50;0.30;;;17.10;68.90;;;;;;5073140;28;20048;-85
2022/09/01 02:51:58;;;;;;;1.00;0.30;;;17.10;68.80;;;;;;5074837;28;20020;-84
2022/09/01 02:54:24;;;;;;;0.90;0.30;;;17.10;68.70;;;;;;5073228;28;20025;-84
2022/09/01 02:56:53;;;;;;;1.30;0.50;;;17.10;68.70;;;;;;5074673;28;20059;-84
2022/09/01 02:59:21;;;;;;;1.67;0.40;;;17.00;68.70;;;;;;5074772;28;20046;-84
2022/09/01 03:01:49;;;;;;;2.47;0.30;;;17.00;68.70;;;;;;5073973;28;20052;-84
2022/09/01 03:04:16;;;;;;;2.88;0.50;;;17.10;68.80;;;;;;5073844;28;20464;-84
2022/09/01 03:06:42;;;;;;;1.48;0.30;;;17.10;68.90;;;;;;5073112;28;20476;-82
2022/09/01 03:09:10;;;;;;;1.00;0.30;;;17.00;68.80;;;;;;5058018;28;20064;-85
2022/09/01 03:11:38;;;;;;;3.42;0.40;;;17.00;68.80;;;;;;5076093;28;20114;-83
2022/09/01 03:14:06;;;;;;;2.08;0.40;;;17.00;68.80;;;;;;5075433;28;20108;-85
2022/09/01 03:16:32;;;;;;;1.60;0.50;;;16.90;68.90;;;;;;5078792;28;20021;-85
2022/09/01 03:18:58;;;;;;;3.63;0.63;;;17.00;68.90;;;;;;5060841;28;20016;-85
2022/09/01 03:21:23;;;;;;;3.20;0.50;;;16.90;68.90;;;;;;5076371;28;20072;-84
2022/09/01 03:23:51;;;;;;;2.05;0.30;;;16.90;68.90;;;;;;5074534;28;20038;-85
2022/09/01 03:26:20;;;;;;;4.40;0.50;;;16.90;68.90;;;;;;5055874;28;20414;-85
2022/09/01 03:28:47;;;;;;;1.35;0.50;;;16.90;68.80;;;;;;5072560;28;20457;-84
2022/09/01 03:31:13;;;;;;;2.22;0.70;;;16.80;68.90;;;;;;5039916;28;20039;-85
2022/09/01 03:33:39;;;;;;;1.60;0.45;;;16.80;68.90;;;;;;5056113;28;20039;-85
2022/09/01 03:36:05;;;;;;;2.75;0.40;;;16.70;68.90;;;;;;5056130;28;20025;-85
2022/09/01 03:38:31;;;;;;;3.00;0.40;;;16.70;68.80;;;;;;5055700;28;20032;-86
2022/09/01 03:41:03;;;;;;;2.92;0.70;;;16.70;68.90;;;;;;5072571;28;20033;-86
2022/09/01 03:43:31;;;;;;;2.25;0.50;;;16.70;69.10;;;;;;5072047;28;20469;-84
2022/09/01 03:46:00;;;;;;;4.22;0.40;;;16.70;69.20;;;;;;5072062;28;20025;-85
2022/09/01 03:48:28;;;;;;;1.30;0.38;;;16.60;69.10;;;;;;5073438;28;20028;-85
2022/09/01 03:50:55;;;;;;;1.00;0.45;;;16.60;69.10;;;;;;5071741;28;20025;-84
2022/09/01 03:53:26;;;;;;;1.40;0.50;;;16.60;69.10;;;;;;5072066;28;20033;-84
2022/09/01 03:55:56;;;;;;;2.58;0.60;;;16.50;69.10;;;;;;5071723;28;20078;-84
2022/09/01 03:58:23;;;;;;;1.55;0.43;;;16.50;69.20;;;;;;5071410;28;20052;-84
2022/09/01 04:01:00;;;;;;;4.15;0.40;;;16.50;69.30;;;;;;5073403;28;20112;-85
2022/09/01 04:03:30;;;;;;;6.13;0.45;;;16.50;69.50;;;;;;5072118;28;20036;-85
2022/09/01 04:05:57;;;;;;;3.78;0.55;;;16.50;69.50;;;;;;5071997;28;20454;-85
2022/09/01 04:08:29;;;;;;;4.03;0.50;;;16.40;69.40;;;;;;5072128;28;20127;-85
2022/09/01 04:10:57;;;;;;;1.67;0.40;;;16.30;69.50;;;;;;5072700;28;20017;-84
2022/09/01 04:13:25;;;;;;;2.42;0.45;;;16.40;69.50;;;;;;5076014;28;20028;-86
2022/09/01 04:15:51;;;;;;;1.33;0.50;;;16.40;69.50;;;;;;5073957;28;20074;-86
2022/09/01 04:18:22;;;;;;;2.75;0.50;;;16.30;69.50;;;;;;5072197;28;20031;-86
2022/09/01 04:20:50;;;;;;;3.47;0.50;;;16.30;69.60;;;;;;5071888;28;20025;-86
2022/09/01 04:23:28;;;;;;;2.60;0.60;;;16.30;69.80;;;;;;5072240;28;20086;-85
2022/09/01 04:26:07;;;;;;;3.42;0.50;;;16.30;69.90;;;;;;5071848;28;20063;-86
2022/09/01 04:28:39;;;;;;;2.08;0.70;;;16.20;69.90;;;;;;5066119;28;20438;-85
2022/09/01 04:31:16;;;;;;;2.40;0.55;;;16.30;70.00;;;;;;5052932;28;20021;-84
2022/09/01 04:33:45;;;;;;;2.22;0.60;;;16.20;70.00;;;;;;5050011;28;20021;-81
2022/09/01 04:36:24;;;;;;;2.50;0.60;;;16.10;70.10;;;;;;5050268;28;20025;-83
2022/09/01 04:38:56;;;;;;;4.30;0.52;;;16.10;70.10;;;;;;5052855;28;20104;-84
2022/09/01 04:41:24;;;;;;;1.20;0.43;;;16.10;70.10;;;;;;5051395;28;20148;-84
2022/09/01 04:43:51;;;;;;;1.90;0.70;;;16.10;70.20;;;;;;5051013;28;20021;-84
2022/09/01 04:46:19;;;;;;;1.77;0.60;;;16.10;70.30;;;;;;5052036;28;20036;-85
2022/09/01 04:48:46;;;;;;;1.48;0.55;;;16.10;70.20;;;;;;5051225;28;20024;-83
2022/09/01 04:51:14;;;;;;;1.50;0.80;;;16.00;70.20;;;;;;5051592;28;20021;-83
2022/09/01 04:53:41;;;;;;;4.00;0.55;;;16.00;70.30;;;;;;5052544;28;20029;-84
2022/09/01 04:56:10;;;;;;;2.97;0.80;;;16.00;70.40;;;;;;5051526;28;20029;-84
2022/09/01 04:58:36;;;;;;;4.05;0.73;;;16.00;70.40;;;;;;5051550;28;20047;-85
2022/09/01 05:01:12;;;;;;;4.28;0.60;;;15.90;70.40;;;;;;5052152;28;20477;-86
2022/09/01 05:03:38;;;;;;;2.55;0.70;;;16.00;70.60;;;;;;5051996;28;20021;-86
2022/09/01 05:06:03;;;;;;;4.35;0.50;;;16.00;70.60;;;;;;5052943;28;20040;-83
2022/09/01 05:08:34;;;;;;;1.35;0.50;;;16.00;70.60;;;;;;5035573;28;20492;-85
2022/09/01 05:11:06;;;;;;;5.40;0.60;;;16.00;70.60;;;;;;5056097;28;20033;-86
2022/09/01 05:13:32;;;;;;;1.00;0.40;;;16.00;70.50;;;;;;5056356;28;20112;-85
2022/09/01 05:16:05;;;;;;;2.33;0.50;;;16.00;70.50;;;;;;5056518;28;20533;-86
2022/09/01 05:18:31;;;;;;;5.38;0.70;;;16.00;70.40;;;;;;5057051;28;20028;-86
2022/09/01 05:20:57;;;;;;;1.65;0.50;;;16.00;70.40;;;;;;5055209;28;20024;-83
2022/09/01 05:23:24;;;;;;;3.10;0.60;;;16.00;70.40;;;;;;5038448;28;20124;-85
2022/09/01 05:25:53;;;;;;;2.00;0.50;;;16.00;70.40;;;;;;5054647;28;20021;-85
2022/09/01 05:28:23;;;;;;;1.08;0.45;;;16.00;70.50;;;;;;5062252;28;20500;-83
2022/09/01 05:30:52;;;;;;;2.95;0.47;;;16.00;70.50;;;;;;5074368;28;20039;-84
2022/09/01 05:33:20;;;;;;;2.92;0.60;;;15.90;70.40;;;;;;5072496;28;20032;-84
2022/09/01 05:36:00;;;;;;;4.78;0.60;;;15.90;70.50;;;;;;5073892;28;20123;-84
2022/09/01 05:38:26;;;;;;;2.13;0.70;;;16.00;70.60;;;;;;5071170;28;20059;-84
2022/09/01 05:40:58;;;;;;;3.80;0.70;;;16.00;70.60;;;;;;5074490;28;20052;-84
2022/09/01 05:43:26;;;;;;;1.98;0.60;;;15.90;70.60;;;;;;5072530;28;20119;-82
2022/09/01 05:45:54;;;;;;;2.38;0.57;;;15.90;71.20;;;;;;5056665;28;20028;-83
2022/09/01 05:48:22;;;;;;;4.43;0.50;;;15.90;70.60;;;;;;5057760;28;20063;-84
2022/09/01 05:50:48;;;;;;;2.95;0.50;;;16.00;70.70;;;;;;5041819;28;20035;-83
2022/09/01 05:53:16;;;;;;;3.75;0.68;;;16.00;70.70;;;;;;5074169;28;20033;-83
2022/09/01 05:55:47;;;;;;;2.05;0.70;;;16.00;70.60;;;;;;5073953;28;20031;-82
2022/09/01 05:58:15;;;;;;;1.48;0.40;;;16.00;70.60;;;;;;5073894;28;20534;-83
2022/09/01 06:00:48;;;;;;;3.92;0.50;;;16.00;70.60;;;;;;5075460;28;20040;-83
2022/09/01 06:03:16;;;;;;;5.43;0.50;;;16.00;70.60;;;;;;5057949;28;20097;-83
2022/09/01 06:05:43;;;;;;;2.10;0.50;;;16.10;70.60;;;;;;5073889;28;20029;-85
2022/09/01 06:08:12;;;;;;;4.40;0.63;;;16.10;70.50;;;;;;5074098;28;20051;-83
2022/09/01 06:10:40;;;;;;;2.90;1.05;;;16.10;70.50;;;;;;5073880;28;20028;-83
2022/09/01 06:13:07;;;;;;;2.00;0.50;;;16.10;70.40;;;;;;5074366;28;20021;-83
2022/09/01 06:15:35;;;;;;;2.70;0.55;;;16.20;70.30;;;;;;5055346;28;20029;-83
2022/09/01 06:18:01;;;;;;;4.95;0.60;;;16.20;70.30;;;;;;5073145;28;20016;-82
2022/09/01 06:20:26;;;;;;;3.60;0.50;;;16.20;70.20;;;;;;5072788;28;20115;-83
2022/09/01 06:22:52;;;;;;;2.97;0.70;;;16.20;70.00;;;;;;5039367;28;20036;-85
2022/09/01 06:25:22;;;;;;;2.03;0.60;;;16.30;69.90;;;;;;5040299;28;20033;-82
2022/09/01 06:27:48;;;;;;;3.67;0.68;;;16.30;69.90;;;;;;5074880;28;20407;-82
2022/09/01 06:30:25;;;;;;;3.17;0.50;;;16.30;69.70;;;;;;5074887;28;20032;-82
2022/09/01 06:32:52;;;;;;;3.58;0.70;;;16.30;69.70;;;;;;5074925;28;20112;-82
2022/09/01 06:35:19;;;;;;;2.75;0.93;;;16.30;69.60;;;;;;5073156;28;20021;-81
2022/09/01 06:37:47;;;;;;;3.85;0.70;;;16.40;69.60;;;;;;5073064;28;20051;-78
2022/09/01 06:40:17;;;;;;;3.70;0.60;;;16.40;69.60;;;;;;5040754;28;20036;-78
2022/09/01 06:42:47;;;;;;;2.22;0.70;;;16.40;69.50;;;;;;5056960;28;20033;-81
2022/09/01 06:45:15;;;;;;;8.50;0.82;;;16.40;69.50;;;;;;5056693;28;20039;-80
2022/09/01 06:47:46;;;;;;;4.65;0.70;;;16.40;69.50;;;;;;5074164;28;20032;-81
2022/09/01 06:50:14;;;;;;;1.48;0.50;;;16.40;69.40;;;;;;5072773;28;20464;-81
2022/09/01 06:52:43;;;;;;;2.92;0.60;;;16.40;69.30;;;;;;5056552;28;20044;-81
2022/09/01 06:55:13;;;;;;;3.45;1.05;;;16.40;69.30;;;;;;5074033;28;20073;-80
2022/09/01 06:57:41;;;;;;;2.67;0.50;;;16.50;69.20;;;;;;5072723;28;20394;-81
2022/09/01 07:00:19;;;;;;;4.22;0.52;;;16.60;69.10;;;;;;5056123;28;20049;-81
2022/09/01 07:02:53;;;;;;;1.15;0.50;;;16.70;69.10;;;;;;5072395;28;20127;-81
2022/09/01 07:05:20;;;;;;;;;;;16.80;69.00;;;;;;5072875;28;20426;-81
2022/09/01 07:07:50;;;;;;;1.48;0.57;;;16.80;68.90;;;;;;5074726;28;19904;-81
2022/09/01 07:10:21;;;;;;;1.73;0.52;;;17.00;68.80;;;;;;5056606;28;20415;-81
2022/09/01 07:12:48;;;;;;;2.53;0.60;;;17.00;68.60;;;;;;5056627;28;20036;-81
2022/09/01 07:15:15;;;;;;;3.70;0.40;;;17.10;68.40;;;;;;5055789;28;20031;-81
2022/09/01 07:17:48;;;;;;;2.10;0.68;;;17.10;68.20;;;;;;5071988;28;20028;-81
2022/09/01 07:20:15;;;;;;;2.15;0.50;;;17.20;68.20;;;;;;5073771;28;20469;-81
2022/09/01 07:22:41;;;;;;;1.88;0.40;;;17.20;68.00;;;;;;5072439;28;20036;-80
2022/09/01 07:25:11;;;;;;;3.22;0.70;;;17.30;68.00;;;;;;5071759;28;20021;-81
2022/09/01 07:27:38;;;;;;;1.77;0.57;;;17.40;67.90;;;;;;5072487;28;20036;-81
2022/09/01 07:30:08;;;;;;;3.00;0.65;;;17.40;67.80;;;;;;5071805;28;20115;-80
2022/09/01 07:32:35;;;;;;;4.10;0.50;;;17.40;67.70;;;;;;5039620;28;20473;-81
2022/09/01 07:35:03;;;;;;;3.95;0.70;;;17.50;67.70;;;;;;5073202;28;20476;-81
2022/09/01 07:37:30;;;;;;;1.52;0.40;;;17.50;67.50;;;;;;5072358;28;20500;-81
2022/09/01 07:39:57;;;;;;;3.38;0.40;;;17.60;67.40;;;;;;5072122;28;20033;-82
2022/09/01 07:42:23;;;;;;;1.42;0.38;;;17.70;67.20;;;;;;5071675;28;20040;-81
2022/09/01 07:44:49;;;;;;;1.40;0.50;;;17.70;66.90;;;;;;5073584;28;20028;-82
2022/09/01 07:47:16;;;;;;;2.75;0.73;;;17.80;66.80;;;;;;5072065;28;20127;-81
2022/09/01 07:49:42;;;;;;;4.28;0.50;;;17.90;66.50;;;;;;5073333;28;20086;-81
2022/09/01 07:52:07;;;;;;;2.08;0.70;;;17.90;66.40;;;;;;5072822;28;20029;-82
2022/09/01 07:54:36;;;;;;;3.55;1.15;;;18.00;66.30;;;;;;5036600;28;20028;-83
2022/09/01 07:57:02;;;;;;;3.17;0.60;;;18.10;66.30;;;;;;5060330;28;20024;-83
2022/09/01 07:59:28;;;;;;;4.57;0.70;;;18.10;66.20;;;;;;5070989;28;20115;-82
2022/09/01 08:01:55;;;;;;;2.70;0.60;;;18.20;66.20;;;;;;5054372;28;20032;-82
2022/09/01 08:04:21;;;;;;;3.55;0.50;;;18.20;66.20;;;;;;5072976;28;20032;-83
2022/09/01 08:06:47;;;;;;;3.15;0.60;;;18.20;66.10;;;;;;5070429;28;20021;-82
2022/09/01 08:09:13;;;;;;;2.58;0.60;;;18.20;66.00;;;;;;5054568;28;20032;-83
2022/09/01 08:11:40;;;;;;;2.45;0.57;;;18.30;65.90;;;;;;5071411;28;20401;-83
2022/09/01 08:14:05;;;;;;;2.42;0.60;;;18.30;65.90;;;;;;5072021;28;20028;-83
2022/09/01 08:16:31;;;;;;;2.55;0.52;;;18.40;66.00;;;;;;5086210;28;20025;-82
2022/09/01 08:19:09;;;;;;;2.15;0.60;;;18.40;66.00;;;;;;5071515;28;20028;-83
2022/09/01 08:21:34;;;;;;;2.13;0.50;;;18.50;65.90;;;;;;5055679;28;20489;-83
2022/09/01 08:24:01;;;;;;;2.05;0.50;;;18.60;65.70;;;;;;5071541;28;20104;-82
2022/09/01 08:26:26;;;;;;;4.05;0.90;;;18.70;65.70;;;;;;5064470;28;20044;-83
2022/09/01 08:28:54;;;;;;;2.30;0.60;;;18.70;65.50;;;;;;5072315;28;20384;-82
2022/09/01 08:31:22;;;;;;;8.88;0.68;;;18.80;65.20;;;;;;5071977;28;20115;-83
2022/09/01 08:33:48;;;;;;;1.40;0.47;;;18.90;65.00;;;;;;5070494;28;20038;-81
2022/09/01 08:36:16;;;;;;;2.15;0.60;;;18.90;65.00;;;;;;5072076;28;20025;-81
2022/09/01 08:38:43;;;;;;;3.35;0.52;;;19.00;64.90;;;;;;5053603;28;20131;-81
2022/09/01 08:41:36;;;;;;;2.28;0.50;;;19.10;64.70;;;;;;5059502;28;20431;-82
2022/09/01 08:44:18;;;;;;;3.58;1.00;;;19.10;64.50;;;;;;5066967;28;20029;-82
2022/09/01 08:46:44;;;;;;;3.90;0.60;;;19.20;64.50;;;;;;5075670;28;20023;-83
2022/09/01 08:49:18;;;;;;;3.13;0.63;;;19.30;64.30;;;;;;5057030;28;20021;-84
2022/09/01 08:51:59;;;;;;;5.82;1.02;;;19.30;64.10;;;;;;5075605;28;20020;-83
2022/09/01 08:54:46;;;;;;;3.20;0.57;;;19.40;63.90;;;;;;5073082;28;20033;-82
2022/09/01 08:57:22;;;;;;;5.07;0.80;;;19.50;63.60;;;;;;5076703;28;20547;-83
2022/09/01 08:59:50;;;;;;;3.10;0.85;;;19.60;62.90;;;;;;5076245;28;20044;-81
2022/09/01 09:02:26;;;;;;;4.60;0.60;;;19.70;62.60;;;;;;5058813;28;20036;-82
2022/09/01 09:05:17;;;;;;;1.73;0.38;;;19.80;62.50;;;;;;5073818;28;20028;-82
2022/09/01 09:08:01;;;;;;;1.15;0.38;;;19.80;62.30;;;;;;5073922;28;20032;-82
2022/09/01 09:10:57;;;;;;;2.30;0.50;;;20.00;62.10;;;;;;5072104;28;20161;-82
2022/09/01 09:13:41;;;;;;;4.63;0.65;;;20.00;61.90;;;;;;5055366;28;20036;-82
2022/09/01 09:16:30;;;;;;;4.28;0.50;;;20.20;61.60;;;;;;5059489;28;20107;-80
2022/09/01 09:19:21;;;;;;;2.08;0.40;;;20.30;61.10;;;;;;5059300;28;20496;-82
2022/09/01 09:21:49;;;;;;;2.42;0.52;;;20.40;60.90;;;;;;5068267;28;20037;-82
2022/09/01 09:24:28;;;;;;;3.75;0.50;;;20.40;60.40;;;;;;5073935;28;20480;-82
2022/09/01 09:26:57;;;;;;;1.73;0.40;;;20.60;60.00;;;;;;5071659;28;20350;-82
2022/09/01 09:29:24;;;;;;;1.23;0.50;;;20.60;59.50;;;;;;5074535;28;20024;-82
2022/09/01 09:32:03;;;;;;;2.60;0.40;;;20.80;58.90;;;;;;5059249;28;20035;-82
2022/09/01 09:34:36;;;;;;;0.85;0.30;;;20.90;58.50;;;;;;5063061;28;20025;-83
2022/09/01 09:37:28;;;;;;;1.95;0.32;;;20.90;57.90;;;;;;5069135;28;20048;-83
2022/09/01 09:40:08;;;;;;;2.03;0.25;;;21.10;57.00;;;;;;5053137;28;20641;-82
2022/09/01 09:42:38;;;;;;;1.17;0.45;;;21.20;56.70;;;;;;5055840;28;20128;-81
2022/09/01 09:45:12;;;;;;;1.23;0.30;;;21.20;56.70;;;;;;5054802;28;20039;-82
2022/09/01 09:47:43;;;;;;;2.65;0.40;;;21.40;56.60;;;;;;5061913;28;20090;-82
2022/09/01 09:50:18;;;;;;;1.75;0.30;;;21.50;56.20;;;;;;5072433;28;20028;-82
2022/09/01 09:52:45;;;;;;;1.73;0.40;;;21.50;55.90;;;;;;5067887;28;20025;-82
2022/09/01 09:55:29;;;;;;;2.05;0.30;;;21.60;55.80;;;;;;5071790;28;20047;-82
2022/09/01 09:58:08;;;;;;;2.55;0.30;;;21.70;55.50;;;;;;5063538;28;20054;-82
2022/09/01 10:00:34;;;;;;;2.08;0.32;;;21.70;54.90;;;;;;5071817;28;20044;-82
2022/09/01 10:03:11;;;;;;;2.95;0.30;;;21.80;53.80;;;;;;5066366;28;20044;-83
2022/09/01 10:05:41;;;;;;;1.35;0.30;;;22.00;53.80;;;;;;5062761;28;20396;-83
2022/09/01 10:08:28;;;;;;;1.65;0.20;;;22.10;53.60;;;;;;5096414;28;20013;-82
2022/09/01 10:10:54;;;;;;;2.60;0.35;;;22.30;52.90;;;;;;5088458;28;20025;-83
2022/09/01 10:13:23;;;;;;;1.75;0.30;;;22.50;52.60;;;;;;5042998;28;20052;-82
2022/09/01 10:15:58;;;;;;;2.88;0.30;;;22.80;52.10;;;;;;5055783;28;20468;-82
2022/09/01 10:18:33;;;;;;;1.35;0.30;;;23.20;51.20;;;;;;5054251;28;20492;-82
2022/09/01 10:21:15;;;;;;;1.48;0.30;;;23.60;50.70;;;;;;5053994;28;20469;-83
2022/09/01 10:23:42;;;;;;;2.72;0.28;;;24.20;50.00;;;;;;5054978;28;20064;-83
2022/09/01 10:26:22;;;;;;;1.52;0.35;;;24.80;50.50;;;;;;5053278;28;20079;-83
2022/09/01 10:28:58;;;;;;;1.30;0.40;;;25.40;49.10;;;;;;5054653;28;20103;-84
2022/09/01 10:31:25;;;;;;;1.75;0.30;;;26.20;48.80;;;;;;5054829;28;20025;-84
2022/09/01 10:33:51;;;;;;;1.30;0.30;;;26.90;48.60;;;;;;5036736;28;20029;-81
2022/09/01 10:36:18;;;;;;;2.80;0.35;;;27.70;47.30;;;;;;5053367;28;20017;-81
2022/09/01 10:38:44;;;;;;;0.95;0.30;;;28.40;45.80;;;;;;5054788;28;20028;-82
2022/09/01 10:41:49;;;;;;;0.90;0.30;;;29.20;45.10;;;;;;5053005;28;20025;-81
2022/09/01 10:44:34;;;;;;;2.85;0.38;;;29.90;43.60;;;;;;5053322;28;20036;-81
2022/09/01 10:47:46;;;;;;;3.35;0.30;;;30.70;43.40;;;;;;5053100;28;20055;-82
2022/09/01 10:50:31;;;;;;;0.60;0.22;;;31.50;42.10;;;;;;5051208;28;20524;-82
2022/09/01 10:53:03;;;;;;;1.40;0.32;;;32.20;40.70;;;;;;5053333;28;20067;-82
2022/09/01 10:56:07;;;;;;;0.97;0.27;;;32.80;40.40;;;;;;5072854;28;20120;-82
2022/09/01 10:58:51;;;;;;;1.55;0.20;;;33.10;39.20;;;;;;5072723;28;20112;-83
2022/09/01 11:01:57;;;;;;;4.32;0.40;;;33.10;39.50;;;;;;5074181;28;20048;-82
2022/09/01 11:04:45;;;;;;;1.02;0.25;;;33.00;38.10;;;;;;5064851;28;20032;-81
2022/09/01 11:07:22;;;;;;;3.00;0.20;;;32.90;37.70;;;;;;5070904;28;20040;-84
2022/09/01 11:10:18;;;;;;;1.17;0.20;;;32.70;37.20;;;;;;5059559;28;20045;-82
2022/09/01 11:13:14;;;;;;;3.03;0.30;;;32.60;36.70;;;;;;5053702;28;20147;-82
2022/09/01 11:15:42;;;;;;;2.88;0.30;;;32.40;36.60;;;;;;5054253;28;20033;-82
2022/09/01 11:18:23;;;;;;;1.85;0.20;;;32.30;36.70;;;;;;5053038;28;20036;-83
2022/09/01 11:20:49;;;;;;;1.10;0.20;;;32.20;36.50;;;;;;5053581;28;20021;-83
2022/09/01 11:23:29;;;;;;;1.55;0.40;;;32.20;36.50;;;;;;5052501;28;20378;-82
2022/09/01 11:25:54;;;;;;;2.17;0.28;;;32.20;36.30;;;;;;5062200;28;20028;-81
2022/09/01 11:28:23;;;;;;;3.20;0.22;;;32.10;36.40;;;;;;5067977;28;20035;-83
2022/09/01 11:30:53;;;;;;;2.03;0.20;;;32.10;36.20;;;;;;5060410;28;20029;-83
2022/09/01 11:33:51;;;;;;;6.38;0.40;;;32.20;36.10;;;;;;5052046;28;20437;-82
2022/09/01 11:36:22;;;;;;;2.35;0.20;;;32.20;36.30;;;;;;5053756;28;20036;-82
2022/09/01 11:39:08;;;;;;;0.65;0.22;;;32.20;36.80;;;;;;5051762;28;20389;-81
2022/09/01 11:41:40;;;;;;;3.58;0.35;;;32.10;37.20;;;;;;5052702;28;20044;-83
2022/09/01 11:44:16;;;;;;;0.90;0.30;;;32.10;37.50;;;;;;5052857;28;20114;-82
2022/09/01 11:46:42;;;;;;;1.33;0.30;;;32.10;37.10;;;;;;5051695;28;20017;-83
2022/09/01 11:49:28;;;;;;;1.90;0.20;;;32.20;37.30;;;;;;5052224;28;20388;-82
2022/09/01 11:51:55;;;;;;;0.88;0.35;;;32.20;36.90;;;;;;5051412;28;20029;-83
2022/09/01 11:54:22;;;;;;;2.28;0.40;;;32.30;37.30;;;;;;5051710;28;20025;-83
2022/09/01 11:56:47;;;;;;;0.70;0.28;;;32.30;37.10;;;;;;5051788;28;20021;-82
2022/09/01 11:59:13;;;;;;;3.70;0.30;;;32.30;36.90;;;;;;5035555;28;20140;-83
2022/09/01 12:01:40;;;;;;;3.33;0.40;;;32.30;37.10;;;;;;5053752;28;20580;-82
2022/09/01 12:04:24;;;;;;;3.10;0.35;;;32.30;37.10;;;;;;5052028;28;20029;-83
2022/09/01 12:06:56;;;;;;;1.88;0.32;;;32.40;36.30;;;;;;5052995;28;20104;-82
2022/09/01 12:09:34;;;;;;;1.40;0.30;;;32.50;36.20;;;;;;5051826;28;20055;-82
2022/09/01 12:12:00;;;;;;;2.75;0.30;;;32.70;35.80;;;;;;5053243;28;20040;-82
2022/09/01 12:14:26;;;;;;;1.17;0.30;;;32.90;35.80;;;;;;5053559;28;20087;-83
2022/09/01 12:16:59;;;;;;;3.90;0.32;;;33.00;35.50;;;;;;5035806;28;20063;-82
2022/09/01 12:19:31;;;;;;;1.58;0.38;;;33.20;35.20;;;;;;5056953;28;20385;-82
2022/09/01 12:22:13;;;;;;;0.82;0.30;;;33.30;35.00;;;;;;5058258;28;20064;-82
2022/09/01 12:24:45;;;;;;;4.72;0.50;;;33.50;34.80;;;;;;5058414;28;20021;-82
2022/09/01 12:27:12;;;;;;;0.80;0.25;;;33.70;34.70;;;;;;5057872;28;20021;-82
2022/09/01 12:29:38;;;;;;;2.03;0.40;;;33.80;34.60;;;;;;5059514;28;20036;-82
2022/09/01 12:32:04;;;;;;;1.33;0.30;;;33.90;34.50;;;;;;5063685;28;20055;-81
2022/09/01 12:34:33;;;;;;;0.55;0.20;;;34.00;34.40;;;;;;5062637;28;20874;-82
2022/09/01 12:37:01;;;;;;;1.17;0.30;;;34.10;34.20;;;;;;5066593;28;20032;-81
2022/09/01 12:39:33;;;;;;;5.30;0.30;;;34.30;34.20;;;;;;5066026;28;20384;-81
2022/09/01 12:42:06;;;;;;;1.50;0.20;;;34.40;34.10;;;;;;5064741;28;20063;-82
2022/09/01 12:44:37;;;;;;;1.85;0.40;;;34.50;34.00;;;;;;5065808;28;20021;-82
2022/09/01 12:47:09;;;;;;;2.83;0.32;;;34.60;33.90;;;;;;5070139;28;20044;-81
2022/09/01 12:49:45;;;;;;;3.28;0.32;;;34.70;33.80;;;;;;5060567;28;20051;-82
2022/09/01 12:52:19;;;;;;;0.80;0.30;;;34.80;33.60;;;;;;5064726;28;20483;-82
2022/09/01 12:54:47;;;;;;;4.32;0.32;;;34.90;33.40;;;;;;5062094;28;20530;-81
2022/09/01 12:57:32;;;;;;;2.17;0.25;;;35.00;33.40;;;;;;5071130;28;20107;-81
2022/09/01 13:00:10;;;;;;;1.05;0.28;;;35.10;33.00;;;;;;5074521;28;20081;-81
2022/09/01 13:02:42;;;;;;;1.00;0.20;;;35.20;32.90;;;;;;5073216;28;20089;-82
2022/09/01 13:05:23;;;;;;;1.80;0.40;;;35.30;32.90;;;;;;5076581;28;20123;-82
2022/09/01 13:07:53;;;;;;;2.00;0.40;;;35.40;32.60;;;;;;5078620;28;20029;-81
2022/09/01 13:10:19;;;;;;;1.83;0.32;;;35.40;32.50;;;;;;5076508;28;20031;-81